createdAt,value
2022-10-19T00:01:23.992Z,20.00
2022-10-19T00:03:53.678Z,10.98
2022-10-19T00:06:25.820Z,10.18
2022-10-19T00:08:55.458Z,10.13
2022-10-19T00:11:23.784Z,11.02
2022-10-19T00:13:51.653Z,10.93
2022-10-19T00:16:19.645Z,14.20
2022-10-19T00:18:46.967Z,9.68
2022-10-19T00:21:17.441Z,8.25
2022-10-19T00:23:45.657Z,14.07
2022-10-19T00:26:13.177Z,8.77
2022-10-19T00:28:41.061Z,13.07
2022-10-19T00:31:14.185Z,9.77
2022-10-19T00:33:42.083Z,9.32
2022-10-19T00:36:23.059Z,13.15
2022-10-19T00:38:50.186Z,10.43
2022-10-19T00:41:18.589Z,13.52
2022-10-19T00:43:58.884Z,11.70
2022-10-19T00:46:28.041Z,10.15
2022-10-19T00:49:00.305Z,8.95
2022-10-19T00:51:29.186Z,11.38
2022-10-19T00:53:56.962Z,11.45
2022-10-19T00:56:24.391Z,9.45
2022-10-19T00:58:51.833Z,10.25
2022-10-19T01:01:20.633Z,8.63
2022-10-19T01:03:47.718Z,10.68
2022-10-19T01:06:15.935Z,9.70
2022-10-19T01:08:43.039Z,10.57
2022-10-19T01:11:24.939Z,9.55
2022-10-19T01:14:20.084Z,13.82
2022-10-19T01:17:35.484Z,10.98
2022-10-19T01:20:09.104Z,12.70
2022-10-19T01:22:45.222Z,14.43
2022-10-19T01:25:27.503Z,10.18
2022-10-19T01:28:22.355Z,9.00
2022-10-19T01:30:59.317Z,10.57
2022-10-19T01:33:32.141Z,9.70
2022-10-19T01:36:14.311Z,9.77
2022-10-19T01:38:46.317Z,19.23
2022-10-19T01:42:03.198Z,8.93
2022-10-19T01:44:39.371Z,13.10
2022-10-19T01:47:10.413Z,11.10
2022-10-19T01:49:50.026Z,9.60
2022-10-19T01:52:19.277Z,11.10
2022-10-19T01:54:49.788Z,12.18
2022-10-19T01:57:21.820Z,17.12
2022-10-19T01:59:49.564Z,15.10
2022-10-19T02:02:17.405Z,11.30
2022-10-19T02:04:45.632Z,13.23
2022-10-19T02:07:12.817Z,15.18
2022-10-19T02:09:39.842Z,25.98
2022-10-19T02:12:09.938Z,14.43
2022-10-19T02:14:43.116Z,14.13
2022-10-19T02:17:14.202Z,13.70
2022-10-19T02:19:41.674Z,13.73
2022-10-19T02:22:09.492Z,18.30
2022-10-19T02:24:37.073Z,14.73
2022-10-19T02:27:05.840Z,12.80
2022-10-19T02:29:34.014Z,24.98
2022-10-19T02:32:01.668Z,16.42
2022-10-19T02:34:28.842Z,11.85
2022-10-19T02:36:55.972Z,12.80
2022-10-19T02:39:23.637Z,14.52
2022-10-19T02:42:04.530Z,15.27
2022-10-19T02:44:48.187Z,17.15
2022-10-19T02:47:18.621Z,13.90
2022-10-19T02:49:46.713Z,13.68
2022-10-19T02:52:14.645Z,12.93
2022-10-19T02:54:43.487Z,17.00
2022-10-19T02:57:23.435Z,14.80
2022-10-19T02:59:50.913Z,16.90
2022-10-19T03:02:19.631Z,17.37
2022-10-19T03:07:20.811Z,20.80
2022-10-19T03:09:48.127Z,16.37
2022-10-19T03:12:15.299Z,23.17
2022-10-19T03:14:42.840Z,21.42
2022-10-19T03:17:10.037Z,23.75
2022-10-19T03:19:37.498Z,16.70
2022-10-19T03:22:05.116Z,18.02
2022-10-19T03:24:32.196Z,21.30
2022-10-19T03:26:59.161Z,17.83
2022-10-19T03:29:26.418Z,22.00
2022-10-19T03:31:53.432Z,19.48
2022-10-19T03:34:20.418Z,19.10
2022-10-19T03:36:47.843Z,15.70
2022-10-19T03:39:16.443Z,15.80
2022-10-19T03:41:44.018Z,21.25
2022-10-19T03:44:11.862Z,17.27
2022-10-19T03:46:39.649Z,17.50
2022-10-19T03:49:07.001Z,18.98
2022-10-19T03:51:34.406Z,18.50
2022-10-19T03:54:08.683Z,18.75
2022-10-19T03:56:36.229Z,18.60
2022-10-19T03:59:04.528Z,19.02
2022-10-19T04:01:34.170Z,26.25
2022-10-19T04:04:05.258Z,19.80
2022-10-19T04:06:36.050Z,19.70
2022-10-19T04:09:04.513Z,15.98
2022-10-19T04:11:32.412Z,21.10
2022-10-19T04:14:00.086Z,18.50
2022-10-19T04:16:28.979Z,18.67
2022-10-19T04:18:56.455Z,19.67
2022-10-19T04:21:27.327Z,21.65
2022-10-19T04:24:08.537Z,17.27
2022-10-19T04:26:39.985Z,24.12
2022-10-19T04:29:07.323Z,18.27
2022-10-19T04:31:34.530Z,16.58
2022-10-19T04:34:01.536Z,21.02
2022-10-19T04:36:28.825Z,23.05
2022-10-19T04:38:55.797Z,22.30
2022-10-19T04:41:23.727Z,23.20
2022-10-19T04:43:59.151Z,27.50
2022-10-19T04:46:27.015Z,20.17
2022-10-19T04:48:55.155Z,21.40
2022-10-19T04:51:22.676Z,34.75
2022-10-19T04:53:50.479Z,25.77
2022-10-19T04:56:26.190Z,25.67
2022-10-19T04:58:56.463Z,22.95
2022-10-19T05:01:24.556Z,26.30
2022-10-19T05:06:30.176Z,24.25
2022-10-19T05:08:57.352Z,22.95
2022-10-19T05:11:24.592Z,23.50
2022-10-19T05:13:51.944Z,23.83
2022-10-19T05:16:21.096Z,23.52
2022-10-19T05:18:59.687Z,25.98
2022-10-19T05:21:28.934Z,23.80
2022-10-19T05:23:56.610Z,22.62
2022-10-19T05:26:25.910Z,26.70
2022-10-19T05:29:04.310Z,23.87
2022-10-19T05:31:33.041Z,24.80
2022-10-19T05:34:01.367Z,28.52
2022-10-19T05:36:34.356Z,24.75
2022-10-19T05:39:06.849Z,29.77
2022-10-19T05:41:34.461Z,27.77
2022-10-19T05:44:03.063Z,24.87
2022-10-19T05:46:31.119Z,25.48
2022-10-19T05:48:58.972Z,23.35
2022-10-19T05:51:27.365Z,24.05
2022-10-19T05:53:55.618Z,24.33
2022-10-19T05:56:27.706Z,24.60
2022-10-19T05:58:56.762Z,21.87
2022-10-19T06:01:23.896Z,25.05
2022-10-19T06:03:52.802Z,22.10
2022-10-19T06:06:19.914Z,24.10
2022-10-19T06:08:47.475Z,20.70
2022-10-19T06:11:40.345Z,24.15
2022-10-19T06:14:09.633Z,22.87
2022-10-19T06:16:37.471Z,22.67
2022-10-19T06:19:05.445Z,22.10
2022-10-19T06:21:33.406Z,25.62
2022-10-19T06:24:03.536Z,22.15
2022-10-19T06:26:32.207Z,23.48
2022-10-19T06:29:00.789Z,18.58
2022-10-19T06:31:29.908Z,20.08
2022-10-19T06:33:56.994Z,21.70
2022-10-19T06:36:27.237Z,21.80
2022-10-19T06:38:54.905Z,22.75
2022-10-19T06:41:22.277Z,20.80
2022-10-19T06:43:51.028Z,19.20
2022-10-19T06:46:20.698Z,20.05
2022-10-19T06:48:52.873Z,17.50
2022-10-19T06:51:20.805Z,20.33
2022-10-19T06:53:48.967Z,23.90
2022-10-19T06:56:17.731Z,22.05
2022-10-19T06:58:45.122Z,18.08
2022-10-19T07:01:13.912Z,19.83
2022-10-19T07:03:41.161Z,24.00
2022-10-19T07:06:10.023Z,17.62
2022-10-19T07:08:39.392Z,18.90
2022-10-19T07:11:10.514Z,20.98
2022-10-19T07:13:37.902Z,21.40
2022-10-19T07:16:14.659Z,17.55
2022-10-19T07:18:45.350Z,30.02
2022-10-19T07:21:15.068Z,16.12
2022-10-19T07:23:43.661Z,17.87
2022-10-19T07:26:15.314Z,18.08
2022-10-19T07:28:45.028Z,16.10
2022-10-19T07:31:14.713Z,14.77
2022-10-19T07:33:41.726Z,16.02
2022-10-19T07:36:10.399Z,16.70
2022-10-19T07:38:37.814Z,17.10
2022-10-19T07:41:11.122Z,16.75
2022-10-19T07:43:38.868Z,15.60
2022-10-19T07:46:08.458Z,19.92
2022-10-19T07:48:35.548Z,13.85
2022-10-19T07:51:05.142Z,14.73
2022-10-19T07:53:32.596Z,16.60
2022-10-19T07:56:13.651Z,14.87
2022-10-19T07:58:41.241Z,16.40
2022-10-19T08:01:15.409Z,15.95
2022-10-19T08:06:30.071Z,10.25
2022-10-19T08:08:57.482Z,13.77
2022-10-19T08:11:30.315Z,11.77
2022-10-19T08:13:59.281Z,13.13
2022-10-19T08:16:39.444Z,12.02
2022-10-19T08:19:09.736Z,9.65
2022-10-19T08:21:37.858Z,9.10
2022-10-19T08:24:05.784Z,8.00
2022-10-19T08:26:35.415Z,8.07
2022-10-19T08:29:04.957Z,7.62
2022-10-19T08:31:38.251Z,10.35
2022-10-19T08:34:05.725Z,6.32
2022-10-19T08:36:35.575Z,8.48
2022-10-19T08:39:04.373Z,6.65
2022-10-19T08:44:34.940Z,7.22
2022-10-19T08:47:34.901Z,7.80
2022-10-19T08:50:05.313Z,5.87
2022-10-19T08:52:34.910Z,7.12
2022-10-19T08:55:09.085Z,5.37
2022-10-19T08:57:50.315Z,5.85
2022-10-19T09:03:55.521Z,5.85
2022-10-19T09:06:29.417Z,4.70
2022-10-19T09:08:57.784Z,4.00
2022-10-19T09:11:28.449Z,4.32
2022-10-19T09:14:05.415Z,5.15
2022-10-19T09:16:36.520Z,3.50
2022-10-19T09:19:16.307Z,3.25
2022-10-19T09:21:47.951Z,3.42
2022-10-19T09:24:18.017Z,3.87
2022-10-19T09:26:53.688Z,6.53
2022-10-19T09:29:45.318Z,3.17
2022-10-19T09:32:16.042Z,4.70
2022-10-19T09:34:48.927Z,11.65
2022-10-19T09:37:24.785Z,4.87
2022-10-19T09:39:55.664Z,4.37
2022-10-19T09:42:26.207Z,5.15
2022-10-19T09:44:54.670Z,3.28
2022-10-19T09:47:40.681Z,4.30
2022-10-19T09:50:23.912Z,2.28
2022-10-19T09:52:53.495Z,3.75
2022-10-19T09:55:26.708Z,2.97
2022-10-19T09:58:04.218Z,4.28
2022-10-19T10:00:37.562Z,3.65
2022-10-19T10:03:06.498Z,5.32
2022-10-19T10:05:39.070Z,5.25
2022-10-19T10:08:15.303Z,3.30
2022-10-19T10:11:34.805Z,5.55
2022-10-19T10:14:24.177Z,4.57
2022-10-19T10:17:16.472Z,4.82
2022-10-19T10:19:59.167Z,3.45
2022-10-19T10:22:32.350Z,4.57
2022-10-19T10:25:00.263Z,3.62
2022-10-19T10:27:38.880Z,4.37
2022-10-19T10:30:16.015Z,3.58
2022-10-19T10:32:49.617Z,5.18
2022-10-19T10:37:47.084Z,2.83
2022-10-19T10:40:27.065Z,3.40
2022-10-19T10:43:16.515Z,4.90
2022-10-19T10:45:48.711Z,3.20
2022-10-19T10:48:28.948Z,2.42
2022-10-19T10:50:57.542Z,6.95
2022-10-19T10:53:33.956Z,5.03
2022-10-19T10:56:01.265Z,1.70
2022-10-19T10:58:35.773Z,2.67
2022-10-19T11:01:07.655Z,1.52
2022-10-19T11:03:36.371Z,4.40
2022-10-19T11:06:03.724Z,2.20
2022-10-19T11:08:38.863Z,2.22
2022-10-19T11:11:20.037Z,7.40
2022-10-19T11:14:04.692Z,2.53
2022-10-19T11:16:35.271Z,4.53
2022-10-19T11:19:12.680Z,3.60
2022-10-19T11:22:06.834Z,2.58
2022-10-19T11:24:54.095Z,4.18
2022-10-19T11:27:27.570Z,4.70
2022-10-19T11:30:00.405Z,4.12
2022-10-19T11:32:34.303Z,3.40
2022-10-19T11:37:49.476Z,2.22
2022-10-19T11:40:54.288Z,3.83
2022-10-19T11:43:42.178Z,2.47
2022-10-19T11:46:43.002Z,2.15
2022-10-19T11:49:44.767Z,3.05
2022-10-19T11:52:47.118Z,1.92
2022-10-19T11:55:37.860Z,3.55
2022-10-19T11:58:18.694Z,2.85
2022-10-19T12:01:03.410Z,1.33
2022-10-19T12:03:43.761Z,7.30
2022-10-19T12:06:39.915Z,2.87
2022-10-19T12:09:19.627Z,3.20
2022-10-19T12:12:08.572Z,1.80
2022-10-19T12:14:39.394Z,1.55
2022-10-19T12:19:51.178Z,5.07
2022-10-19T12:22:25.511Z,2.25
2022-10-19T12:24:55.413Z,2.45
2022-10-19T12:27:29.967Z,7.15
2022-10-19T12:30:04.849Z,2.33
2022-10-19T12:32:40.079Z,3.15
2022-10-19T12:35:34.712Z,3.25
2022-10-19T12:38:26.433Z,3.55
2022-10-19T12:41:17.029Z,2.83
2022-10-19T12:44:01.930Z,4.95
2022-10-19T12:46:47.008Z,3.70
2022-10-19T12:49:45.112Z,1.42
2022-10-19T12:52:13.820Z,2.85
2022-10-19T12:54:42.415Z,2.30
2022-10-19T12:57:27.383Z,5.62
2022-10-19T13:00:18.824Z,3.45
2022-10-19T13:02:47.346Z,3.03
2022-10-19T13:05:25.162Z,3.45
2022-10-19T13:07:52.354Z,3.47
2022-10-19T13:10:22.304Z,4.37
2022-10-19T13:12:49.764Z,3.92
2022-10-19T13:15:39.845Z,2.95
2022-10-19T13:18:16.833Z,3.40
2022-10-19T13:20:53.749Z,7.18
2022-10-19T13:23:26.762Z,4.25
2022-10-19T13:26:24.446Z,2.50
2022-10-19T13:28:53.238Z,2.37
2022-10-19T13:31:31.340Z,3.15
2022-10-19T13:33:58.743Z,8.68
2022-10-19T13:36:26.304Z,4.93
2022-10-19T13:38:59.306Z,5.72
2022-10-19T13:41:28.588Z,4.12
2022-10-19T13:44:02.039Z,12.07
2022-10-19T13:46:29.240Z,5.90
2022-10-19T13:49:26.744Z,5.22
2022-10-19T13:52:34.332Z,2.58
2022-10-19T13:55:16.811Z,10.48
2022-10-19T13:58:31.660Z,4.60
2022-10-19T14:01:31.156Z,4.32
2022-10-19T14:04:21.037Z,4.80
2022-10-19T14:06:53.726Z,14.87
2022-10-19T14:09:44.071Z,4.80
2022-10-19T14:12:24.053Z,7.50
2022-10-19T14:14:53.855Z,4.57
2022-10-19T14:17:27.976Z,9.48
2022-10-19T14:19:57.995Z,5.40
2022-10-19T14:22:33.698Z,5.05
2022-10-19T14:25:03.785Z,14.25
2022-10-19T14:27:31.664Z,7.40
2022-10-19T14:29:59.137Z,10.00
2022-10-19T14:32:28.713Z,28.35
2022-10-19T14:37:36.830Z,9.15
2022-10-19T14:40:08.301Z,8.40
2022-10-19T14:42:43.876Z,7.18
2022-10-19T14:45:15.118Z,7.85
2022-10-19T14:47:53.508Z,9.13
2022-10-19T14:50:23.377Z,5.68
2022-10-19T14:52:52.224Z,9.05
2022-10-19T14:55:19.801Z,6.53
2022-10-19T14:57:50.349Z,8.18
2022-10-19T15:00:32.336Z,5.35
2022-10-19T15:03:01.677Z,5.15
2022-10-19T15:05:32.234Z,8.07
2022-10-19T15:08:07.477Z,4.40
2022-10-19T15:10:43.265Z,4.57
2022-10-19T15:13:28.652Z,7.97
2022-10-19T15:15:56.148Z,5.45
2022-10-19T15:18:47.526Z,5.97
2022-10-19T15:21:14.977Z,6.55
2022-10-19T15:23:49.913Z,7.82
2022-10-19T15:26:21.105Z,11.90
2022-10-19T15:28:49.206Z,5.05
2022-10-19T15:31:19.933Z,8.13
2022-10-19T15:33:52.650Z,9.05
2022-10-19T15:36:21.265Z,6.65
2022-10-19T15:39:25.152Z,4.93
2022-10-19T15:41:55.833Z,6.93
2022-10-19T15:44:43.473Z,5.20
2022-10-19T15:47:18.229Z,5.28
2022-10-19T15:49:45.820Z,9.52
2022-10-19T15:52:17.685Z,7.35
2022-10-19T15:54:47.887Z,6.90
2022-10-19T15:57:31.669Z,6.37
2022-10-19T16:00:01.177Z,6.50
2022-10-19T16:02:31.094Z,4.70
2022-10-19T16:04:58.623Z,4.93
2022-10-19T16:07:28.231Z,6.82
2022-10-19T16:09:55.451Z,7.22
2022-10-19T16:12:23.577Z,7.28
2022-10-19T16:14:50.611Z,7.50
2022-10-19T16:17:17.734Z,5.45
2022-10-19T16:19:45.553Z,8.75
2022-10-19T16:22:13.833Z,4.80
2022-10-19T16:24:41.610Z,6.80
2022-10-19T16:27:09.504Z,8.90
2022-10-19T16:29:36.516Z,7.50
2022-10-19T16:32:03.712Z,7.75
2022-10-19T16:34:31.036Z,4.93
2022-10-19T16:37:01.402Z,5.95
2022-10-19T16:39:31.619Z,5.32
2022-10-19T16:41:58.623Z,6.75
2022-10-19T16:44:25.676Z,7.00
2022-10-19T16:46:52.951Z,5.35
2022-10-19T16:49:20.051Z,6.43
2022-10-19T16:51:47.160Z,8.02
2022-10-19T16:54:15.588Z,7.00
2022-10-19T16:56:47.113Z,5.25
2022-10-19T16:59:16.592Z,4.22
2022-10-19T17:01:44.992Z,4.90
2022-10-19T17:04:13.132Z,5.07
2022-10-19T17:06:40.925Z,18.50
2022-10-19T17:09:40.707Z,7.32
2022-10-19T17:11:55.857Z,6.72
2022-10-19T17:14:22.894Z,7.55
2022-10-19T17:16:50.099Z,6.75
2022-10-19T17:19:17.707Z,6.65
2022-10-19T17:21:44.673Z,8.98
2022-10-19T17:24:21.630Z,15.18
2022-10-19T17:26:51.398Z,8.60
2022-10-19T17:29:19.030Z,5.37
2022-10-19T17:31:46.518Z,7.43
2022-10-19T17:34:14.085Z,7.40
2022-10-19T17:36:44.506Z,5.18
2022-10-19T17:39:15.292Z,24.40
2022-10-19T17:41:42.628Z,15.80
2022-10-19T17:44:09.648Z,12.60
2022-10-19T17:46:36.760Z,11.65
2022-10-19T17:49:05.115Z,5.15
2022-10-19T17:51:33.925Z,4.03
2022-10-19T17:54:03.709Z,7.35
2022-10-19T17:56:31.565Z,6.05
2022-10-19T17:58:59.279Z,7.68
2022-10-19T18:01:26.963Z,7.90
2022-10-19T18:03:54.510Z,10.45
2022-10-19T18:06:25.432Z,7.50
2022-10-19T18:08:54.435Z,6.15
2022-10-19T18:11:24.149Z,7.15
2022-10-19T18:13:55.131Z,8.90
2022-10-19T18:16:34.553Z,8.68
2022-10-19T18:19:03.641Z,6.47
2022-10-19T18:21:35.007Z,6.62
2022-10-19T18:24:02.977Z,5.07
2022-10-19T18:26:31.915Z,6.57
2022-10-19T18:29:00.228Z,6.72
2022-10-19T18:31:31.595Z,5.07
2022-10-19T18:34:04.209Z,6.03
2022-10-19T18:36:32.644Z,7.95
2022-10-19T18:39:02.934Z,6.53
2022-10-19T18:41:30.316Z,6.32
2022-10-19T18:44:04.967Z,5.50
2022-10-19T18:46:33.877Z,5.53
2022-10-19T18:49:01.680Z,4.82
2022-10-19T18:51:29.481Z,5.57
2022-10-19T18:53:56.806Z,8.25
2022-10-19T18:56:24.016Z,7.18
2022-10-19T18:58:51.286Z,4.90
2022-10-19T19:01:23.970Z,6.15
2022-10-19T19:03:52.853Z,4.97
2022-10-19T19:06:22.496Z,6.37
2022-10-19T19:08:52.384Z,4.62
2022-10-19T19:11:22.437Z,11.45
2022-10-19T19:13:51.888Z,3.37
2022-10-19T19:16:19.884Z,13.65
2022-10-19T19:18:46.950Z,5.47
2022-10-19T19:21:22.293Z,4.85
2022-10-19T19:23:50.761Z,3.42
2022-10-19T19:26:19.070Z,8.60
2022-10-19T19:28:49.046Z,7.18
2022-10-19T19:31:18.814Z,5.60
2022-10-19T19:33:46.991Z,9.85
2022-10-19T19:36:16.040Z,5.30
2022-10-19T19:38:43.497Z,5.30
2022-10-19T19:41:14.477Z,5.47
2022-10-19T19:43:42.668Z,6.72
2022-10-19T19:46:16.538Z,6.40
2022-10-19T19:48:45.871Z,5.00
2022-10-19T19:51:19.598Z,6.28
2022-10-19T19:53:47.716Z,5.62
2022-10-19T19:56:17.029Z,8.82
2022-10-19T19:58:46.995Z,4.65
2022-10-19T20:01:18.154Z,9.05
2022-10-19T20:03:46.127Z,7.72
2022-10-19T20:06:14.689Z,6.35
2022-10-19T20:08:41.901Z,4.18
2022-10-19T20:11:11.793Z,6.85
2022-10-19T20:13:39.273Z,3.90
2022-10-19T20:16:17.689Z,6.05
2022-10-19T20:18:47.070Z,10.18
2022-10-19T20:21:15.211Z,9.55
2022-10-19T20:23:46.407Z,4.87
2022-10-19T20:26:17.741Z,7.03
2022-10-19T20:28:45.227Z,9.73
2022-10-19T20:31:13.451Z,8.13
2022-10-19T20:33:42.662Z,5.20
2022-10-19T20:36:17.586Z,4.50
2022-10-19T20:38:56.102Z,8.98
2022-10-19T20:41:25.796Z,3.62
2022-10-19T20:43:54.260Z,5.12
2022-10-19T20:46:24.286Z,3.75
2022-10-19T20:48:52.040Z,5.22
2022-10-19T20:51:30.618Z,4.35
2022-10-19T20:54:01.366Z,4.95
2022-10-19T20:56:31.982Z,3.80
2022-10-19T20:59:00.865Z,3.83
2022-10-19T21:01:30.061Z,9.98
2022-10-19T21:04:00.496Z,5.53
2022-10-19T21:06:29.524Z,6.47
2022-10-19T21:08:56.809Z,5.75
2022-10-19T21:11:29.553Z,4.05
2022-10-19T21:13:58.947Z,4.30
2022-10-19T21:16:30.620Z,8.52
2022-10-19T21:18:57.665Z,9.18
2022-10-19T21:21:27.288Z,3.42
2022-10-19T21:24:04.638Z,11.10
2022-10-19T21:26:33.128Z,5.82
2022-10-19T21:29:01.015Z,3.35
2022-10-19T21:31:28.348Z,6.22
2022-10-19T21:33:55.416Z,6.68
2022-10-19T21:36:25.158Z,7.03
2022-10-19T21:38:52.143Z,4.12
2022-10-19T21:41:23.797Z,3.62
2022-10-19T21:43:54.631Z,4.12
2022-10-19T21:46:22.709Z,6.85
2022-10-19T21:48:50.214Z,3.53
2022-10-19T21:51:17.400Z,6.22
2022-10-19T21:53:44.606Z,7.55
2022-10-19T21:56:11.581Z,3.95
2022-10-19T21:58:38.839Z,6.97
2022-10-19T22:01:07.233Z,4.95
2022-10-19T22:03:34.750Z,10.82
2022-10-19T22:06:01.836Z,4.87
2022-10-19T22:08:28.863Z,5.12
2022-10-19T22:10:56.521Z,4.95
2022-10-19T22:13:23.531Z,9.02
2022-10-19T22:15:50.524Z,2.87
2022-10-19T22:18:17.794Z,5.10
2022-10-19T22:20:44.806Z,6.78
2022-10-19T22:23:11.828Z,4.57
2022-10-19T22:25:39.087Z,5.45
2022-10-19T22:28:06.240Z,3.40
2022-10-19T22:30:33.536Z,3.67
2022-10-19T22:33:01.010Z,4.40
2022-10-19T22:35:28.006Z,3.97
2022-10-19T22:37:54.977Z,3.90
2022-10-19T22:40:22.243Z,3.17
2022-10-19T22:42:49.176Z,3.17
2022-10-19T22:45:16.225Z,4.43
2022-10-19T22:47:43.513Z,4.25
2022-10-19T22:50:11.875Z,4.97
2022-10-19T22:52:39.159Z,4.18
2022-10-19T22:55:06.740Z,3.40
2022-10-19T22:57:33.751Z,3.58
2022-10-19T23:00:00.717Z,2.75
2022-10-19T23:02:29.437Z,7.07
2022-10-19T23:04:56.651Z,8.52
2022-10-19T23:07:23.666Z,3.83
2022-10-19T23:09:50.922Z,5.47
2022-10-19T23:12:18.105Z,3.40
2022-10-19T23:14:45.138Z,2.87
2022-10-19T23:17:12.384Z,4.50
2022-10-19T23:19:39.375Z,2.87
2022-10-19T23:22:06.413Z,3.55
2022-10-19T23:24:33.707Z,4.82
2022-10-19T23:27:00.689Z,4.78
2022-10-19T23:29:27.674Z,5.35
2022-10-19T23:31:55.033Z,4.12
2022-10-19T23:34:22.091Z,4.78
2022-10-19T23:36:49.097Z,7.90
2022-10-19T23:39:16.451Z,5.35
2022-10-19T23:41:43.753Z,4.30
2022-10-19T23:44:10.852Z,3.80
2022-10-19T23:46:38.245Z,4.47
2022-10-19T23:49:05.429Z,5.43
2022-10-19T23:51:32.466Z,5.40
2022-10-19T23:53:59.749Z,4.78
2022-10-19T23:56:28.970Z,6.18
2022-10-19T23:58:56.364Z,4.60
